sensor_id;sensor_type;location;lat;lon;timestamp;temperature;humidity
51637;DHT22;37713;53.254;6.460;2022-07-05T00:02:18;12.50;99.90
51637;DHT22;37713;53.254;6.460;2022-07-05T00:04:44;12.40;99.90
51637;DHT22;37713;53.254;6.460;2022-07-05T00:07:09;12.40;99.90
51637;DHT22;37713;53.254;6.460;2022-07-05T00:09:48;12.50;99.90
51637;DHT22;37713;53.254;6.460;2022-07-05T00:12:14;12.40;99.90
51637;DHT22;37713;53.254;6.460;2022-07-05T00:14:44;12.40;99.90
51637;DHT22;37713;53.254;6.460;2022-07-05T00:17:11;12.30;99.90
51637;DHT22;37713;53.254;6.460;2022-07-05T00:19:37;12.30;99.90
51637;DHT22;37713;53.254;6.460;2022-07-05T00:22:04;12.30;99.90
51637;DHT22;37713;53.254;6.460;2022-07-05T00:24:30;12.20;99.90
51637;DHT22;37713;53.254;6.460;2022-07-05T00:26:55;12.20;99.90
51637;DHT22;37713;53.254;6.460;2022-07-05T00:29:21;12.20;99.90
51637;DHT22;37713;53.254;6.460;2022-07-05T00:31:47;12.10;99.90
51637;DHT22;37713;53.254;6.460;2022-07-05T00:34:13;12.20;99.90
51637;DHT22;37713;53.254;6.460;2022-07-05T00:36:39;12.20;99.90
51637;DHT22;37713;53.254;6.460;2022-07-05T00:39:06;12.20;99.90
51637;DHT22;37713;53.254;6.460;2022-07-05T00:41:32;12.20;99.90
51637;DHT22;37713;53.254;6.460;2022-07-05T00:44:00;12.20;99.90
51637;DHT22;37713;53.254;6.460;2022-07-05T00:46:27;12.30;99.90
51637;DHT22;37713;53.254;6.460;2022-07-05T00:48:54;12.20;99.90
51637;DHT22;37713;53.254;6.460;2022-07-05T00:51:20;12.20;99.90
51637;DHT22;37713;53.254;6.460;2022-07-05T00:53:47;12.10;99.90
51637;DHT22;37713;53.254;6.460;2022-07-05T00:56:14;12.20;99.90
51637;DHT22;37713;53.254;6.460;2022-07-05T00:58:39;12.20;99.90
51637;DHT22;37713;53.254;6.460;2022-07-05T01:01:07;12.20;99.90
51637;DHT22;37713;53.254;6.460;2022-07-05T01:03:33;12.30;99.90
51637;DHT22;37713;53.254;6.460;2022-07-05T01:06:04;12.20;99.90
51637;DHT22;37713;53.254;6.460;2022-07-05T01:08:33;12.20;99.90
51637;DHT22;37713;53.254;6.460;2022-07-05T01:11:02;12.30;99.90
51637;DHT22;37713;53.254;6.460;2022-07-05T01:13:28;12.20;99.90
51637;DHT22;37713;53.254;6.460;2022-07-05T01:15:55;12.20;99.90
51637;DHT22;37713;53.254;6.460;2022-07-05T01:18:21;12.20;99.90
51637;DHT22;37713;53.254;6.460;2022-07-05T01:20:51;12.10;99.90
51637;DHT22;37713;53.254;6.460;2022-07-05T01:23:20;12.00;99.90
51637;DHT22;37713;53.254;6.460;2022-07-05T01:25:47;12.00;99.90
51637;DHT22;37713;53.254;6.460;2022-07-05T01:28:14;12.00;99.90
51637;DHT22;37713;53.254;6.460;2022-07-05T01:30:41;11.90;99.90
51637;DHT22;37713;53.254;6.460;2022-07-05T01:33:08;11.90;99.90
51637;DHT22;37713;53.254;6.460;2022-07-05T01:35:35;11.90;99.90
51637;DHT22;37713;53.254;6.460;2022-07-05T01:38:01;11.80;99.90
51637;DHT22;37713;53.254;6.460;2022-07-05T01:40:27;11.90;99.90
51637;DHT22;37713;53.254;6.460;2022-07-05T01:42:53;11.80;99.90
51637;DHT22;37713;53.254;6.460;2022-07-05T01:45:19;11.80;99.90
51637;DHT22;37713;53.254;6.460;2022-07-05T01:48:18;11.70;99.90
51637;DHT22;37713;53.254;6.460;2022-07-05T01:51:05;11.80;99.90
51637;DHT22;37713;53.254;6.460;2022-07-05T01:53:32;11.60;99.90
51637;DHT22;37713;53.254;6.460;2022-07-05T01:55:59;11.70;99.90
51637;DHT22;37713;53.254;6.460;2022-07-05T01:58:26;11.60;99.90
51637;DHT22;37713;53.254;6.460;2022-07-05T02:00:53;11.70;99.90
51637;DHT22;37713;53.254;6.460;2022-07-05T02:03:20;11.60;99.90
51637;DHT22;37713;53.254;6.460;2022-07-05T02:05:46;11.60;99.90
51637;DHT22;37713;53.254;6.460;2022-07-05T02:08:13;11.60;99.90
51637;DHT22;37713;53.254;6.460;2022-07-05T02:10:40;11.60;99.90
51637;DHT22;37713;53.254;6.460;2022-07-05T02:13:06;11.50;99.90
51637;DHT22;37713;53.254;6.460;2022-07-05T02:15:33;11.50;99.90
51637;DHT22;37713;53.254;6.460;2022-07-05T02:18:00;11.50;99.90
51637;DHT22;37713;53.254;6.460;2022-07-05T02:20:27;11.50;99.90
51637;DHT22;37713;53.254;6.460;2022-07-05T02:22:53;11.40;99.90
51637;DHT22;37713;53.254;6.460;2022-07-05T02:25:18;11.30;99.90
51637;DHT22;37713;53.254;6.460;2022-07-05T02:27:44;11.30;99.90
51637;DHT22;37713;53.254;6.460;2022-07-05T02:30:11;11.30;99.90
51637;DHT22;37713;53.254;6.460;2022-07-05T02:32:36;11.40;99.90
51637;DHT22;37713;53.254;6.460;2022-07-05T02:35:03;11.40;99.90
51637;DHT22;37713;53.254;6.460;2022-07-05T02:37:30;11.20;99.90
51637;DHT22;37713;53.254;6.460;2022-07-05T02:39:56;11.30;99.90
51637;DHT22;37713;53.254;6.460;2022-07-05T02:42:22;11.20;99.90
51637;DHT22;37713;53.254;6.460;2022-07-05T02:44:47;11.20;99.90
51637;DHT22;37713;53.254;6.460;2022-07-05T02:47:13;11.20;99.90
51637;DHT22;37713;53.254;6.460;2022-07-05T02:49:39;11.20;99.90
51637;DHT22;37713;53.254;6.460;2022-07-05T02:52:05;11.00;99.90
51637;DHT22;37713;53.254;6.460;2022-07-05T02:54:31;11.20;99.90
51637;DHT22;37713;53.254;6.460;2022-07-05T02:56:56;11.00;99.90
51637;DHT22;37713;53.254;6.460;2022-07-05T02:59:22;11.00;99.90
51637;DHT22;37713;53.254;6.460;2022-07-05T03:01:48;11.10;99.90
51637;DHT22;37713;53.254;6.460;2022-07-05T03:04:13;11.00;99.90
51637;DHT22;37713;53.254;6.460;2022-07-05T03:06:40;11.00;99.90
51637;DHT22;37713;53.254;6.460;2022-07-05T03:09:05;11.00;99.90
51637;DHT22;37713;53.254;6.460;2022-07-05T03:11:31;10.90;99.90
51637;DHT22;37713;53.254;6.460;2022-07-05T03:13:57;11.10;99.90
51637;DHT22;37713;53.254;6.460;2022-07-05T03:16:22;10.90;99.90
51637;DHT22;37713;53.254;6.460;2022-07-05T03:18:50;10.90;99.90
51637;DHT22;37713;53.254;6.460;2022-07-05T03:21:17;10.90;99.90
51637;DHT22;37713;53.254;6.460;2022-07-05T03:23:42;11.00;99.90
51637;DHT22;37713;53.254;6.460;2022-07-05T03:26:08;10.90;99.90
51637;DHT22;37713;53.254;6.460;2022-07-05T03:28:34;10.90;99.90
51637;DHT22;37713;53.254;6.460;2022-07-05T03:31:00;10.90;99.90
51637;DHT22;37713;53.254;6.460;2022-07-05T03:33:26;10.90;99.90
51637;DHT22;37713;53.254;6.460;2022-07-05T03:35:52;10.90;99.90
51637;DHT22;37713;53.254;6.460;2022-07-05T03:38:18;10.90;99.90
51637;DHT22;37713;53.254;6.460;2022-07-05T03:40:44;10.90;99.90
51637;DHT22;37713;53.254;6.460;2022-07-05T03:43:10;11.00;99.90
51637;DHT22;37713;53.254;6.460;2022-07-05T03:45:35;11.00;99.90
51637;DHT22;37713;53.254;6.460;2022-07-05T03:48:01;11.00;99.90
51637;DHT22;37713;53.254;6.460;2022-07-05T03:50:28;11.10;99.90
51637;DHT22;37713;53.254;6.460;2022-07-05T03:52:54;11.00;99.90
51637;DHT22;37713;53.254;6.460;2022-07-05T03:55:19;11.00;99.90
51637;DHT22;37713;53.254;6.460;2022-07-05T03:57:45;11.10;99.90
51637;DHT22;37713;53.254;6.460;2022-07-05T04:00:12;11.20;99.90
51637;DHT22;37713;53.254;6.460;2022-07-05T04:02:38;11.20;99.90
51637;DHT22;37713;53.254;6.460;2022-07-05T04:05:04;11.20;99.90
51637;DHT22;37713;53.254;6.460;2022-07-05T04:07:30;11.20;99.90
51637;DHT22;37713;53.254;6.460;2022-07-05T04:09:56;11.20;99.90
51637;DHT22;37713;53.254;6.460;2022-07-05T04:12:22;11.20;99.90
51637;DHT22;37713;53.254;6.460;2022-07-05T04:14:47;11.30;99.90
51637;DHT22;37713;53.254;6.460;2022-07-05T04:17:13;11.30;99.90
51637;DHT22;37713;53.254;6.460;2022-07-05T04:19:39;11.40;99.90
51637;DHT22;37713;53.254;6.460;2022-07-05T04:22:05;11.20;99.90
51637;DHT22;37713;53.254;6.460;2022-07-05T04:24:30;11.40;99.90
51637;DHT22;37713;53.254;6.460;2022-07-05T04:26:56;11.30;99.90
51637;DHT22;37713;53.254;6.460;2022-07-05T04:29:22;11.40;99.90
51637;DHT22;37713;53.254;6.460;2022-07-05T04:31:48;11.50;99.90
51637;DHT22;37713;53.254;6.460;2022-07-05T04:34:13;11.60;99.90
51637;DHT22;37713;53.254;6.460;2022-07-05T04:36:39;11.70;99.90
51637;DHT22;37713;53.254;6.460;2022-07-05T04:39:06;11.60;99.90
51637;DHT22;37713;53.254;6.460;2022-07-05T04:41:33;11.70;99.90
51637;DHT22;37713;53.254;6.460;2022-07-05T04:43:59;11.80;99.90
51637;DHT22;37713;53.254;6.460;2022-07-05T04:46:25;11.90;99.90
51637;DHT22;37713;53.254;6.460;2022-07-05T04:48:51;12.00;99.90
51637;DHT22;37713;53.254;6.460;2022-07-05T04:51:17;12.00;99.90
51637;DHT22;37713;53.254;6.460;2022-07-05T04:53:42;12.00;99.90
51637;DHT22;37713;53.254;6.460;2022-07-05T04:56:08;12.00;99.90
51637;DHT22;37713;53.254;6.460;2022-07-05T04:58:34;12.00;99.90
51637;DHT22;37713;53.254;6.460;2022-07-05T05:01:00;12.20;99.90
51637;DHT22;37713;53.254;6.460;2022-07-05T05:03:26;12.10;99.90
51637;DHT22;37713;53.254;6.460;2022-07-05T05:05:52;12.20;99.90
51637;DHT22;37713;53.254;6.460;2022-07-05T05:08:17;12.40;99.90
51637;DHT22;37713;53.254;6.460;2022-07-05T05:10:43;12.30;99.90
51637;DHT22;37713;53.254;6.460;2022-07-05T05:13:09;12.50;99.90
51637;DHT22;37713;53.254;6.460;2022-07-05T05:15:34;12.50;99.90
51637;DHT22;37713;53.254;6.460;2022-07-05T05:18:00;12.70;99.90
51637;DHT22;37713;53.254;6.460;2022-07-05T05:20:26;12.80;99.90
51637;DHT22;37713;53.254;6.460;2022-07-05T05:22:52;12.90;99.90
51637;DHT22;37713;53.254;6.460;2022-07-05T05:25:18;12.90;99.90
51637;DHT22;37713;53.254;6.460;2022-07-05T05:27:47;13.10;99.90
51637;DHT22;37713;53.254;6.460;2022-07-05T05:30:18;13.10;99.90
51637;DHT22;37713;53.254;6.460;2022-07-05T05:32:44;13.20;99.90
51637;DHT22;37713;53.254;6.460;2022-07-05T05:35:10;13.40;99.90
51637;DHT22;37713;53.254;6.460;2022-07-05T05:40:15;13.80;99.90
51637;DHT22;37713;53.254;6.460;2022-07-05T05:42:41;13.90;99.90
51637;DHT22;37713;53.254;6.460;2022-07-05T05:45:08;14.10;99.90
51637;DHT22;37713;53.254;6.460;2022-07-05T05:47:41;14.10;99.90
51637;DHT22;37713;53.254;6.460;2022-07-05T05:50:07;14.20;99.90
51637;DHT22;37713;53.254;6.460;2022-07-05T05:52:33;14.50;99.90
51637;DHT22;37713;53.254;6.460;2022-07-05T05:54:59;14.60;99.90
51637;DHT22;37713;53.254;6.460;2022-07-05T05:57:25;14.70;99.90
51637;DHT22;37713;53.254;6.460;2022-07-05T05:59:50;14.90;99.90
51637;DHT22;37713;53.254;6.460;2022-07-05T06:02:16;15.20;99.90
51637;DHT22;37713;53.254;6.460;2022-07-05T06:04:42;15.40;99.90
51637;DHT22;37713;53.254;6.460;2022-07-05T06:07:07;15.60;99.90
51637;DHT22;37713;53.254;6.460;2022-07-05T06:09:33;15.80;99.90
51637;DHT22;37713;53.254;6.460;2022-07-05T06:11:59;15.90;99.90
51637;DHT22;37713;53.254;6.460;2022-07-05T06:14:25;16.00;99.90
51637;DHT22;37713;53.254;6.460;2022-07-05T06:16:50;16.00;99.90
51637;DHT22;37713;53.254;6.460;2022-07-05T06:19:16;16.10;99.90
51637;DHT22;37713;53.254;6.460;2022-07-05T06:21:42;16.20;99.90
51637;DHT22;37713;53.254;6.460;2022-07-05T06:24:08;16.30;99.90
51637;DHT22;37713;53.254;6.460;2022-07-05T06:26:33;16.40;99.90
51637;DHT22;37713;53.254;6.460;2022-07-05T06:28:59;16.60;99.90
51637;DHT22;37713;53.254;6.460;2022-07-05T06:31:25;16.80;99.90
51637;DHT22;37713;53.254;6.460;2022-07-05T06:33:51;17.00;99.90
51637;DHT22;37713;53.254;6.460;2022-07-05T06:36:16;17.90;99.90
51637;DHT22;37713;53.254;6.460;2022-07-05T06:38:42;19.40;99.90
51637;DHT22;37713;53.254;6.460;2022-07-05T06:41:08;20.80;99.90
51637;DHT22;37713;53.254;6.460;2022-07-05T06:43:33;21.80;99.90
51637;DHT22;37713;53.254;6.460;2022-07-05T06:45:59;22.30;99.90
51637;DHT22;37713;53.254;6.460;2022-07-05T06:48:25;22.90;99.90
51637;DHT22;37713;53.254;6.460;2022-07-05T06:50:51;23.50;99.90
51637;DHT22;37713;53.254;6.460;2022-07-05T06:53:17;24.10;99.90
51637;DHT22;37713;53.254;6.460;2022-07-05T06:55:42;24.40;99.90
51637;DHT22;37713;53.254;6.460;2022-07-05T06:58:11;24.60;99.90
51637;DHT22;37713;53.254;6.460;2022-07-05T07:00:39;24.70;99.90
51637;DHT22;37713;53.254;6.460;2022-07-05T07:03:04;25.20;99.90
51637;DHT22;37713;53.254;6.460;2022-07-05T07:05:30;25.10;99.90
51637;DHT22;37713;53.254;6.460;2022-07-05T07:07:56;25.20;99.90
51637;DHT22;37713;53.254;6.460;2022-07-05T07:10:40;25.00;99.90
51637;DHT22;37713;53.254;6.460;2022-07-05T07:13:06;24.60;99.90
51637;DHT22;37713;53.254;6.460;2022-07-05T07:15:32;24.40;99.90
51637;DHT22;37713;53.254;6.460;2022-07-05T07:17:59;24.00;99.90
51637;DHT22;37713;53.254;6.460;2022-07-05T07:20:25;23.50;99.90
51637;DHT22;37713;53.254;6.460;2022-07-05T07:22:51;23.10;99.90
51637;DHT22;37713;53.254;6.460;2022-07-05T07:25:17;22.60;99.90
51637;DHT22;37713;53.254;6.460;2022-07-05T07:27:47;22.10;99.90
51637;DHT22;37713;53.254;6.460;2022-07-05T07:30:15;21.60;99.90
51637;DHT22;37713;53.254;6.460;2022-07-05T07:32:42;21.20;99.90
51637;DHT22;37713;53.254;6.460;2022-07-05T07:35:09;20.90;99.90
51637;DHT22;37713;53.254;6.460;2022-07-05T07:37:35;20.70;99.90
51637;DHT22;37713;53.254;6.460;2022-07-05T07:40:02;20.30;99.90
51637;DHT22;37713;53.254;6.460;2022-07-05T07:42:28;20.10;99.90
51637;DHT22;37713;53.254;6.460;2022-07-05T07:44:54;19.90;99.90
51637;DHT22;37713;53.254;6.460;2022-07-05T07:47:20;19.70;99.90
51637;DHT22;37713;53.254;6.460;2022-07-05T07:49:45;19.70;99.90
51637;DHT22;37713;53.254;6.460;2022-07-05T07:52:11;19.80;99.90
51637;DHT22;37713;53.254;6.460;2022-07-05T07:54:37;19.80;99.90
51637;DHT22;37713;53.254;6.460;2022-07-05T07:57:03;19.80;99.90
51637;DHT22;37713;53.254;6.460;2022-07-05T07:59:34;19.50;99.90
51637;DHT22;37713;53.254;6.460;2022-07-05T08:02:00;19.40;99.90
51637;DHT22;37713;53.254;6.460;2022-07-05T08:04:26;19.20;99.90
51637;DHT22;37713;53.254;6.460;2022-07-05T08:06:52;19.10;99.90
51637;DHT22;37713;53.254;6.460;2022-07-05T08:09:18;19.00;99.90
51637;DHT22;37713;53.254;6.460;2022-07-05T08:11:46;18.90;99.90
51637;DHT22;37713;53.254;6.460;2022-07-05T08:14:13;18.90;99.90
51637;DHT22;37713;53.254;6.460;2022-07-05T08:16:38;18.90;99.90
51637;DHT22;37713;53.254;6.460;2022-07-05T08:19:04;18.90;99.90
51637;DHT22;37713;53.254;6.460;2022-07-05T08:21:48;19.10;99.90
51637;DHT22;37713;53.254;6.460;2022-07-05T08:24:15;19.30;99.90
51637;DHT22;37713;53.254;6.460;2022-07-05T08:26:41;19.50;99.90
51637;DHT22;37713;53.254;6.460;2022-07-05T08:29:09;19.60;99.90
51637;DHT22;37713;53.254;6.460;2022-07-05T08:31:47;19.70;99.90
51637;DHT22;37713;53.254;6.460;2022-07-05T08:34:15;20.20;99.90
51637;DHT22;37713;53.254;6.460;2022-07-05T08:36:41;20.90;99.90
51637;DHT22;37713;53.254;6.460;2022-07-05T08:39:07;21.20;99.90
51637;DHT22;37713;53.254;6.460;2022-07-05T08:41:39;21.30;99.90
51637;DHT22;37713;53.254;6.460;2022-07-05T08:44:06;21.30;99.90
51637;DHT22;37713;53.254;6.460;2022-07-05T08:46:33;21.00;99.90
51637;DHT22;37713;53.254;6.460;2022-07-05T08:49:01;20.70;99.90
51637;DHT22;37713;53.254;6.460;2022-07-05T08:51:29;20.90;99.90
51637;DHT22;37713;53.254;6.460;2022-07-05T08:53:57;20.90;99.90
51637;DHT22;37713;53.254;6.460;2022-07-05T08:56:24;20.90;99.90
51637;DHT22;37713;53.254;6.460;2022-07-05T08:58:50;20.90;99.90
51637;DHT22;37713;53.254;6.460;2022-07-05T09:01:16;20.80;99.90
51637;DHT22;37713;53.254;6.460;2022-07-05T09:03:52;20.90;99.90
51637;DHT22;37713;53.254;6.460;2022-07-05T09:06:22;20.90;99.90
51637;DHT22;37713;53.254;6.460;2022-07-05T09:08:55;20.90;99.90
51637;DHT22;37713;53.254;6.460;2022-07-05T09:11:29;21.20;99.90
51637;DHT22;37713;53.254;6.460;2022-07-05T09:13:56;21.20;99.90
51637;DHT22;37713;53.254;6.460;2022-07-05T09:16:23;21.10;99.90
51637;DHT22;37713;53.254;6.460;2022-07-05T09:18:50;21.10;99.90
51637;DHT22;37713;53.254;6.460;2022-07-05T09:21:23;21.30;99.90
51637;DHT22;37713;53.254;6.460;2022-07-05T09:24:00;21.30;99.90
51637;DHT22;37713;53.254;6.460;2022-07-05T09:28:57;21.10;99.90
51637;DHT22;37713;53.254;6.460;2022-07-05T09:31:31;21.20;99.90
51637;DHT22;37713;53.254;6.460;2022-07-05T09:34:04;21.10;99.90
51637;DHT22;37713;53.254;6.460;2022-07-05T09:36:49;21.20;99.90
51637;DHT22;37713;53.254;6.460;2022-07-05T09:39:15;21.10;99.90
51637;DHT22;37713;53.254;6.460;2022-07-05T09:41:41;20.80;99.90
51637;DHT22;37713;53.254;6.460;2022-07-05T09:44:07;20.80;99.90
51637;DHT22;37713;53.254;6.460;2022-07-05T09:46:33;20.60;99.90
51637;DHT22;37713;53.254;6.460;2022-07-05T09:49:00;20.40;99.90
51637;DHT22;37713;53.254;6.460;2022-07-05T09:51:25;20.20;99.90
51637;DHT22;37713;53.254;6.460;2022-07-05T09:53:54;20.00;99.90
51637;DHT22;37713;53.254;6.460;2022-07-05T09:56:21;20.00;99.90
51637;DHT22;37713;53.254;6.460;2022-07-05T09:58:47;20.30;99.90
51637;DHT22;37713;53.254;6.460;2022-07-05T10:01:27;20.50;99.90
51637;DHT22;37713;53.254;6.460;2022-07-05T10:03:54;20.80;99.90
51637;DHT22;37713;53.254;6.460;2022-07-05T10:06:25;21.20;99.90
51637;DHT22;37713;53.254;6.460;2022-07-05T10:08:52;21.40;99.90
51637;DHT22;37713;53.254;6.460;2022-07-05T10:11:21;21.30;99.90
51637;DHT22;37713;53.254;6.460;2022-07-05T10:13:50;21.20;99.90
51637;DHT22;37713;53.254;6.460;2022-07-05T10:16:18;21.10;99.90
51637;DHT22;37713;53.254;6.460;2022-07-05T10:18:45;21.00;99.90
51637;DHT22;37713;53.254;6.460;2022-07-05T10:21:16;20.90;99.90
51637;DHT22;37713;53.254;6.460;2022-07-05T10:23:47;20.80;99.90
51637;DHT22;37713;53.254;6.460;2022-07-05T10:26:15;20.90;99.90
51637;DHT22;37713;53.254;6.460;2022-07-05T10:28:44;21.00;99.90
51637;DHT22;37713;53.254;6.460;2022-07-05T10:31:11;21.20;99.90
51637;DHT22;37713;53.254;6.460;2022-07-05T10:33:37;21.30;99.90
51637;DHT22;37713;53.254;6.460;2022-07-05T10:36:04;21.20;99.90
51637;DHT22;37713;53.254;6.460;2022-07-05T10:38:34;21.20;99.90
51637;DHT22;37713;53.254;6.460;2022-07-05T10:41:03;21.30;99.90
51637;DHT22;37713;53.254;6.460;2022-07-05T10:43:30;21.30;99.90
51637;DHT22;37713;53.254;6.460;2022-07-05T10:45:57;21.30;99.90
51637;DHT22;37713;53.254;6.460;2022-07-05T10:48:29;21.20;99.90
51637;DHT22;37713;53.254;6.460;2022-07-05T10:58:34;21.10;99.90
51637;DHT22;37713;53.254;6.460;2022-07-05T11:13:58;20.50;99.90
51637;DHT22;37713;53.254;6.460;2022-07-05T11:16:25;20.60;99.90
51637;DHT22;37713;53.254;6.460;2022-07-05T11:21:30;20.60;99.90
51637;DHT22;37713;53.254;6.460;2022-07-05T11:26:43;20.90;99.90
51637;DHT22;37713;53.254;6.460;2022-07-05T11:32:18;20.80;99.90
51637;DHT22;37713;53.254;6.460;2022-07-05T11:34:45;20.80;99.90
51637;DHT22;37713;53.254;6.460;2022-07-05T11:37:21;20.60;99.90
51637;DHT22;37713;53.254;6.460;2022-07-05T11:42:51;20.10;99.90
51637;DHT22;37713;53.254;6.460;2022-07-05T11:45:17;19.90;99.90
51637;DHT22;37713;53.254;6.460;2022-07-05T11:47:44;19.90;99.90
51637;DHT22;37713;53.254;6.460;2022-07-05T11:50:11;19.90;99.90
51637;DHT22;37713;53.254;6.460;2022-07-05T11:52:38;19.90;99.90
51637;DHT22;37713;53.254;6.460;2022-07-05T11:55:08;20.00;99.90
51637;DHT22;37713;53.254;6.460;2022-07-05T11:57:35;19.90;99.90
51637;DHT22;37713;53.254;6.460;2022-07-05T12:00:01;19.70;99.90
51637;DHT22;37713;53.254;6.460;2022-07-05T12:02:27;19.50;99.90
51637;DHT22;37713;53.254;6.460;2022-07-05T12:04:54;19.30;99.90
51637;DHT22;37713;53.254;6.460;2022-07-05T12:07:27;19.20;99.90
51637;DHT22;37713;53.254;6.460;2022-07-05T12:09:52;19.10;99.90
51637;DHT22;37713;53.254;6.460;2022-07-05T12:12:36;19.00;99.90
51637;DHT22;37713;53.254;6.460;2022-07-05T12:17:35;19.00;99.90
51637;DHT22;37713;53.254;6.460;2022-07-05T12:20:01;19.20;99.90
51637;DHT22;37713;53.254;6.460;2022-07-05T12:22:32;19.50;99.90
51637;DHT22;37713;53.254;6.460;2022-07-05T12:24:58;20.00;99.90
51637;DHT22;37713;53.254;6.460;2022-07-05T12:27:28;20.30;99.90
51637;DHT22;37713;53.254;6.460;2022-07-05T12:29:56;20.50;99.90
51637;DHT22;37713;53.254;6.460;2022-07-05T12:32:21;20.60;99.90
51637;DHT22;37713;53.254;6.460;2022-07-05T12:34:47;20.60;99.90
51637;DHT22;37713;53.254;6.460;2022-07-05T12:37:24;20.60;99.90
51637;DHT22;37713;53.254;6.460;2022-07-05T12:40:07;20.50;99.90
51637;DHT22;37713;53.254;6.460;2022-07-05T12:42:38;20.40;99.90
51637;DHT22;37713;53.254;6.460;2022-07-05T12:45:14;20.70;99.90
51637;DHT22;37713;53.254;6.460;2022-07-05T12:47:56;20.90;99.90
51637;DHT22;37713;53.254;6.460;2022-07-05T12:50:24;21.00;99.90
51637;DHT22;37713;53.254;6.460;2022-07-05T12:53:06;20.90;99.90
51637;DHT22;37713;53.254;6.460;2022-07-05T12:56:07;20.80;99.90
51637;DHT22;37713;53.254;6.460;2022-07-05T12:58:54;20.60;99.90
51637;DHT22;37713;53.254;6.460;2022-07-05T13:01:30;20.50;99.90
51637;DHT22;37713;53.254;6.460;2022-07-05T13:04:01;20.50;99.90
51637;DHT22;37713;53.254;6.460;2022-07-05T13:06:50;20.70;99.90
51637;DHT22;37713;53.254;6.460;2022-07-05T13:12:18;20.50;99.90
51637;DHT22;37713;53.254;6.460;2022-07-05T13:14:48;20.60;99.90
51637;DHT22;37713;53.254;6.460;2022-07-05T13:17:15;20.50;99.90
51637;DHT22;37713;53.254;6.460;2022-07-05T13:19:42;20.70;99.90
51637;DHT22;37713;53.254;6.460;2022-07-05T13:22:08;21.10;99.90
51637;DHT22;37713;53.254;6.460;2022-07-05T13:24:34;21.40;99.90
51637;DHT22;37713;53.254;6.460;2022-07-05T13:27:01;21.40;99.90
51637;DHT22;37713;53.254;6.460;2022-07-05T13:29:30;21.50;99.90
51637;DHT22;37713;53.254;6.460;2022-07-05T13:31:56;21.40;99.90
51637;DHT22;37713;53.254;6.460;2022-07-05T13:34:22;21.50;99.90
51637;DHT22;37713;53.254;6.460;2022-07-05T13:36:58;21.40;99.90
51637;DHT22;37713;53.254;6.460;2022-07-05T13:39:28;21.30;99.90
51637;DHT22;37713;53.254;6.460;2022-07-05T13:41:55;21.60;99.90
51637;DHT22;37713;53.254;6.460;2022-07-05T13:44:21;21.80;99.90
51637;DHT22;37713;53.254;6.460;2022-07-05T13:46:48;21.70;99.90
51637;DHT22;37713;53.254;6.460;2022-07-05T13:49:14;21.60;99.90
51637;DHT22;37713;53.254;6.460;2022-07-05T13:51:40;21.50;99.90
51637;DHT22;37713;53.254;6.460;2022-07-05T13:54:06;21.60;99.90
51637;DHT22;37713;53.254;6.460;2022-07-05T13:56:32;21.60;99.90
51637;DHT22;37713;53.254;6.460;2022-07-05T13:58:58;21.40;99.90
51637;DHT22;37713;53.254;6.460;2022-07-05T14:01:25;21.10;99.90
51637;DHT22;37713;53.254;6.460;2022-07-05T14:03:56;21.00;99.90
51637;DHT22;37713;53.254;6.460;2022-07-05T14:06:22;21.00;99.90
51637;DHT22;37713;53.254;6.460;2022-07-05T14:08:48;21.00;99.90
51637;DHT22;37713;53.254;6.460;2022-07-05T14:11:14;21.00;99.90
51637;DHT22;37713;53.254;6.460;2022-07-05T14:13:40;21.10;99.90
51637;DHT22;37713;53.254;6.460;2022-07-05T14:16:07;21.20;99.90
51637;DHT22;37713;53.254;6.460;2022-07-05T14:18:34;21.20;99.90
51637;DHT22;37713;53.254;6.460;2022-07-05T14:21:00;21.20;99.90
51637;DHT22;37713;53.254;6.460;2022-07-05T14:23:26;21.20;99.90
51637;DHT22;37713;53.254;6.460;2022-07-05T14:25:51;21.20;99.90
51637;DHT22;37713;53.254;6.460;2022-07-05T14:28:17;21.20;99.90
51637;DHT22;37713;53.254;6.460;2022-07-05T14:30:45;21.20;99.90
51637;DHT22;37713;53.254;6.460;2022-07-05T14:33:12;21.10;99.90
51637;DHT22;37713;53.254;6.460;2022-07-05T14:35:39;21.00;99.90
51637;DHT22;37713;53.254;6.460;2022-07-05T14:38:05;20.80;99.90
51637;DHT22;37713;53.254;6.460;2022-07-05T14:40:31;20.40;99.90
51637;DHT22;37713;53.254;6.460;2022-07-05T14:42:58;20.30;99.90
51637;DHT22;37713;53.254;6.460;2022-07-05T14:45:25;20.20;99.90
51637;DHT22;37713;53.254;6.460;2022-07-05T14:47:52;20.20;99.90
51637;DHT22;37713;53.254;6.460;2022-07-05T14:50:18;20.70;99.90
51637;DHT22;37713;53.254;6.460;2022-07-05T14:52:46;20.70;99.90
51637;DHT22;37713;53.254;6.460;2022-07-05T14:55:12;20.80;99.90
51637;DHT22;37713;53.254;6.460;2022-07-05T14:57:39;20.90;99.90
51637;DHT22;37713;53.254;6.460;2022-07-05T15:00:07;21.10;99.90
51637;DHT22;37713;53.254;6.460;2022-07-05T15:02:34;21.30;99.90
51637;DHT22;37713;53.254;6.460;2022-07-05T15:04:59;21.40;99.90
51637;DHT22;37713;53.254;6.460;2022-07-05T15:07:25;21.00;99.90
51637;DHT22;37713;53.254;6.460;2022-07-05T15:09:51;20.70;99.90
51637;DHT22;37713;53.254;6.460;2022-07-05T15:12:17;20.40;99.90
51637;DHT22;37713;53.254;6.460;2022-07-05T15:14:46;20.30;99.90
51637;DHT22;37713;53.254;6.460;2022-07-05T15:17:12;20.20;99.90
51637;DHT22;37713;53.254;6.460;2022-07-05T15:19:38;20.20;99.90
51637;DHT22;37713;53.254;6.460;2022-07-05T15:22:06;20.20;99.90
51637;DHT22;37713;53.254;6.460;2022-07-05T15:24:31;20.30;99.90
51637;DHT22;37713;53.254;6.460;2022-07-05T15:26:57;20.20;99.90
51637;DHT22;37713;53.254;6.460;2022-07-05T15:29:23;20.40;99.90
51637;DHT22;37713;53.254;6.460;2022-07-05T15:31:50;20.50;99.90
51637;DHT22;37713;53.254;6.460;2022-07-05T15:34:17;20.60;99.90
51637;DHT22;37713;53.254;6.460;2022-07-05T15:36:42;20.60;99.90
51637;DHT22;37713;53.254;6.460;2022-07-05T15:39:08;20.60;99.90
51637;DHT22;37713;53.254;6.460;2022-07-05T15:41:34;20.60;99.90
51637;DHT22;37713;53.254;6.460;2022-07-05T15:44:01;20.50;99.90
51637;DHT22;37713;53.254;6.460;2022-07-05T15:46:27;20.50;99.90
51637;DHT22;37713;53.254;6.460;2022-07-05T15:49:13;20.30;99.90
51637;DHT22;37713;53.254;6.460;2022-07-05T15:51:39;20.40;99.90
51637;DHT22;37713;53.254;6.460;2022-07-05T15:54:05;20.50;99.90
51637;DHT22;37713;53.254;6.460;2022-07-05T15:56:30;20.30;99.90
51637;DHT22;37713;53.254;6.460;2022-07-05T15:58:56;20.30;99.90
51637;DHT22;37713;53.254;6.460;2022-07-05T16:01:22;20.20;99.90
51637;DHT22;37713;53.254;6.460;2022-07-05T16:03:47;20.10;99.90
51637;DHT22;37713;53.254;6.460;2022-07-05T16:06:13;20.00;99.90
51637;DHT22;37713;53.254;6.460;2022-07-05T16:08:39;20.00;99.90
51637;DHT22;37713;53.254;6.460;2022-07-05T16:11:05;20.40;99.90
51637;DHT22;37713;53.254;6.460;2022-07-05T16:13:30;20.50;99.90
51637;DHT22;37713;53.254;6.460;2022-07-05T16:15:57;20.70;99.90